Wallace, New York
Current Conditions -  °F | °C
As of 11:54 AM on Saturday 25 Oct 2014 (Local Time) from KDSV Reporting Station
Clear Clear  
Wind Chill: 63°   Ceiling: Unl
Heat Index: 63°   Visibility: 10mi
Dew Point: 46°   Wind: 10mph
Humidity: 54%   Direction: 220°SW
Pressure: 29.73"   Gusts: 16mph
Location:  42.4193°N, 77.4498°W
Report Text: KDSV 251554Z AUTO 22009G14KT 170V280 10SM CLR 17/08 A2973 RMK AO2 SLP078 T01720078
Loading
Personal Weather Stations






























Interactive Weather Map
Tropical Storm Tracking
New forecast layout! Learn more

10-Day Weather Forecast

Advertisements
Track Severe Weather on mobile